sensor_id;sensor_type;location;lat;lon;timestamp;P1;durP1;ratioP1;P2;durP2;ratioP2
28343;SDS011;15597;50.914;6.638;2023-06-22T00:00:47;5.55;;;2.10;;
28343;SDS011;15597;50.914;6.638;2023-06-22T00:03:13;4.45;;;1.90;;
28343;SDS011;15597;50.914;6.638;2023-06-22T00:05:39;5.20;;;2.40;;
28343;SDS011;15597;50.914;6.638;2023-06-22T00:08:05;5.32;;;2.20;;
28343;SDS011;15597;50.914;6.638;2023-06-22T00:10:30;5.07;;;2.60;;
28343;SDS011;15597;50.914;6.638;2023-06-22T00:12:56;6.50;;;2.33;;
28343;SDS011;15597;50.914;6.638;2023-06-22T00:15:22;5.22;;;2.28;;
28343;SDS011;15597;50.914;6.638;2023-06-22T00:17:48;3.92;;;1.75;;
28343;SDS011;15597;50.914;6.638;2023-06-22T00:20:15;3.88;;;2.00;;
28343;SDS011;15597;50.914;6.638;2023-06-22T00:22:42;7.95;;;2.10;;
28343;SDS011;15597;50.914;6.638;2023-06-22T00:25:08;4.35;;;2.40;;
28343;SDS011;15597;50.914;6.638;2023-06-22T00:27:34;4.18;;;2.17;;
28343;SDS011;15597;50.914;6.638;2023-06-22T00:30:00;4.57;;;2.40;;
28343;SDS011;15597;50.914;6.638;2023-06-22T00:34:53;6.38;;;2.42;;
28343;SDS011;15597;50.914;6.638;2023-06-22T00:37:18;5.80;;;2.40;;
28343;SDS011;15597;50.914;6.638;2023-06-22T00:39:44;6.72;;;2.20;;
28343;SDS011;15597;50.914;6.638;2023-06-22T00:42:10;4.13;;;2.08;;
28343;SDS011;15597;50.914;6.638;2023-06-22T00:44:36;5.18;;;2.50;;
28343;SDS011;15597;50.914;6.638;2023-06-22T00:47:02;5.68;;;2.53;;
28343;SDS011;15597;50.914;6.638;2023-06-22T00:49:28;5.40;;;2.10;;
28343;SDS011;15597;50.914;6.638;2023-06-22T00:51:54;3.70;;;2.20;;
28343;SDS011;15597;50.914;6.638;2023-06-22T00:54:22;5.93;;;2.60;;
28343;SDS011;15597;50.914;6.638;2023-06-22T00:56:51;5.35;;;2.40;;
28343;SDS011;15597;50.914;6.638;2023-06-22T00:59:20;6.47;;;2.33;;
28343;SDS011;15597;50.914;6.638;2023-06-22T01:01:46;4.53;;;1.90;;
28343;SDS011;15597;50.914;6.638;2023-06-22T01:04:12;5.30;;;2.33;;
28343;SDS011;15597;50.914;6.638;2023-06-22T01:06:38;7.38;;;2.55;;
28343;SDS011;15597;50.914;6.638;2023-06-22T01:09:20;6.53;;;2.25;;
28343;SDS011;15597;50.914;6.638;2023-06-22T01:11:53;5.32;;;2.08;;
28343;SDS011;15597;50.914;6.638;2023-06-22T01:14:23;4.57;;;2.53;;
28343;SDS011;15597;50.914;6.638;2023-06-22T01:17:00;4.22;;;2.10;;
28343;SDS011;15597;50.914;6.638;2023-06-22T01:19:41;4.47;;;2.30;;
28343;SDS011;15597;50.914;6.638;2023-06-22T01:22:15;4.68;;;2.22;;
28343;SDS011;15597;50.914;6.638;2023-06-22T01:29:52;3.90;;;2.20;;
28343;SDS011;15597;50.914;6.638;2023-06-22T01:32:34;5.80;;;2.28;;
28343;SDS011;15597;50.914;6.638;2023-06-22T01:35:03;5.93;;;2.60;;
28343;SDS011;15597;50.914;6.638;2023-06-22T01:37:30;6.72;;;2.80;;
28343;SDS011;15597;50.914;6.638;2023-06-22T01:39:57;4.55;;;1.92;;
28343;SDS011;15597;50.914;6.638;2023-06-22T01:42:24;5.32;;;2.25;;
28343;SDS011;15597;50.914;6.638;2023-06-22T01:44:52;5.07;;;2.25;;
28343;SDS011;15597;50.914;6.638;2023-06-22T01:47:18;6.38;;;2.50;;
28343;SDS011;15597;50.914;6.638;2023-06-22T01:49:45;9.30;;;2.60;;
28343;SDS011;15597;50.914;6.638;2023-06-22T01:52:11;6.20;;;2.40;;
28343;SDS011;15597;50.914;6.638;2023-06-22T01:54:38;4.90;;;2.13;;
28343;SDS011;15597;50.914;6.638;2023-06-22T01:57:05;4.20;;;2.00;;
28343;SDS011;15597;50.914;6.638;2023-06-22T01:59:39;5.05;;;2.00;;
28343;SDS011;15597;50.914;6.638;2023-06-22T02:02:11;5.22;;;2.47;;
28343;SDS011;15597;50.914;6.638;2023-06-22T02:04:43;6.43;;;2.50;;
28343;SDS011;15597;50.914;6.638;2023-06-22T02:07:14;4.78;;;2.00;;
28343;SDS011;15597;50.914;6.638;2023-06-22T02:09:43;5.68;;;2.38;;
28343;SDS011;15597;50.914;6.638;2023-06-22T02:12:13;5.20;;;2.30;;
28343;SDS011;15597;50.914;6.638;2023-06-22T02:14:44;7.72;;;2.60;;
28343;SDS011;15597;50.914;6.638;2023-06-22T02:17:15;5.07;;;2.33;;
28343;SDS011;15597;50.914;6.638;2023-06-22T02:19:41;4.25;;;2.25;;
28343;SDS011;15597;50.914;6.638;2023-06-22T02:22:07;6.15;;;2.80;;
28343;SDS011;15597;50.914;6.638;2023-06-22T02:24:32;5.13;;;2.15;;
28343;SDS011;15597;50.914;6.638;2023-06-22T02:26:59;4.78;;;1.95;;
28343;SDS011;15597;50.914;6.638;2023-06-22T02:29:26;4.78;;;2.20;;
28343;SDS011;15597;50.914;6.638;2023-06-22T02:31:52;6.50;;;2.47;;
28343;SDS011;15597;50.914;6.638;2023-06-22T02:34:18;4.30;;;2.03;;
28343;SDS011;15597;50.914;6.638;2023-06-22T02:36:47;4.82;;;2.20;;
28343;SDS011;15597;50.914;6.638;2023-06-22T02:39:20;4.88;;;2.30;;
28343;SDS011;15597;50.914;6.638;2023-06-22T02:41:53;5.72;;;2.50;;
28343;SDS011;15597;50.914;6.638;2023-06-22T02:44:21;4.78;;;2.13;;
28343;SDS011;15597;50.914;6.638;2023-06-22T02:46:47;6.55;;;2.50;;
28343;SDS011;15597;50.914;6.638;2023-06-22T02:49:15;7.85;;;2.42;;
28343;SDS011;15597;50.914;6.638;2023-06-22T02:51:42;5.00;;;2.33;;
28343;SDS011;15597;50.914;6.638;2023-06-22T02:54:11;4.70;;;2.17;;
28343;SDS011;15597;50.914;6.638;2023-06-22T02:56:37;4.88;;;1.95;;
28343;SDS011;15597;50.914;6.638;2023-06-22T02:59:03;5.13;;;2.53;;
28343;SDS011;15597;50.914;6.638;2023-06-22T03:01:35;5.10;;;2.50;;
28343;SDS011;15597;50.914;6.638;2023-06-22T03:04:03;5.35;;;2.42;;
28343;SDS011;15597;50.914;6.638;2023-06-22T03:06:30;5.10;;;2.60;;
28343;SDS011;15597;50.914;6.638;2023-06-22T03:08:58;6.88;;;2.53;;
28343;SDS011;15597;50.914;6.638;2023-06-22T03:11:26;5.28;;;2.40;;
28343;SDS011;15597;50.914;6.638;2023-06-22T03:13:52;5.18;;;2.67;;
28343;SDS011;15597;50.914;6.638;2023-06-22T03:16:18;4.95;;;2.38;;
28343;SDS011;15597;50.914;6.638;2023-06-22T03:18:44;7.40;;;3.40;;
28343;SDS011;15597;50.914;6.638;2023-06-22T03:23:37;6.15;;;2.97;;
28343;SDS011;15597;50.914;6.638;2023-06-22T03:26:03;5.85;;;2.25;;
28343;SDS011;15597;50.914;6.638;2023-06-22T03:28:29;7.57;;;2.30;;
28343;SDS011;15597;50.914;6.638;2023-06-22T03:30:57;8.45;;;2.28;;
28343;SDS011;15597;50.914;6.638;2023-06-22T03:33:22;5.13;;;2.40;;
28343;SDS011;15597;50.914;6.638;2023-06-22T03:35:48;4.15;;;2.30;;
28343;SDS011;15597;50.914;6.638;2023-06-22T03:38:15;6.28;;;2.88;;
28343;SDS011;15597;50.914;6.638;2023-06-22T03:40:44;5.47;;;2.90;;
28343;SDS011;15597;50.914;6.638;2023-06-22T03:43:09;4.20;;;2.13;;
28343;SDS011;15597;50.914;6.638;2023-06-22T03:45:35;4.53;;;2.22;;
28343;SDS011;15597;50.914;6.638;2023-06-22T03:48:01;5.53;;;2.55;;
28343;SDS011;15597;50.914;6.638;2023-06-22T03:50:27;6.22;;;2.50;;
28343;SDS011;15597;50.914;6.638;2023-06-22T03:52:52;5.78;;;2.30;;
28343;SDS011;15597;50.914;6.638;2023-06-22T03:55:19;5.93;;;2.63;;
28343;SDS011;15597;50.914;6.638;2023-06-22T03:57:45;4.75;;;2.10;;
28343;SDS011;15597;50.914;6.638;2023-06-22T04:00:11;3.92;;;2.13;;
28343;SDS011;15597;50.914;6.638;2023-06-22T04:02:40;4.72;;;2.33;;
28343;SDS011;15597;50.914;6.638;2023-06-22T04:05:08;6.20;;;2.65;;
28343;SDS011;15597;50.914;6.638;2023-06-22T04:07:34;5.45;;;2.45;;
28343;SDS011;15597;50.914;6.638;2023-06-22T04:09:59;3.72;;;1.83;;
28343;SDS011;15597;50.914;6.638;2023-06-22T04:12:25;5.95;;;2.70;;
28343;SDS011;15597;50.914;6.638;2023-06-22T04:14:50;4.75;;;2.47;;
28343;SDS011;15597;50.914;6.638;2023-06-22T04:17:16;5.82;;;2.70;;
28343;SDS011;15597;50.914;6.638;2023-06-22T04:19:42;4.85;;;2.60;;
28343;SDS011;15597;50.914;6.638;2023-06-22T04:22:08;7.70;;;3.67;;
28343;SDS011;15597;50.914;6.638;2023-06-22T04:24:35;7.13;;;3.03;;
28343;SDS011;15597;50.914;6.638;2023-06-22T04:27:00;7.15;;;3.85;;
28343;SDS011;15597;50.914;6.638;2023-06-22T04:29:28;6.03;;;2.80;;
28343;SDS011;15597;50.914;6.638;2023-06-22T04:31:58;4.85;;;2.40;;
28343;SDS011;15597;50.914;6.638;2023-06-22T04:34:28;4.75;;;2.67;;
28343;SDS011;15597;50.914;6.638;2023-06-22T04:36:54;8.30;;;3.28;;
28343;SDS011;15597;50.914;6.638;2023-06-22T04:39:20;5.88;;;2.80;;
28343;SDS011;15597;50.914;6.638;2023-06-22T04:41:46;5.03;;;2.55;;
28343;SDS011;15597;50.914;6.638;2023-06-22T04:44:12;5.57;;;3.50;;
28343;SDS011;15597;50.914;6.638;2023-06-22T04:46:52;7.03;;;2.75;;
28343;SDS011;15597;50.914;6.638;2023-06-22T04:49:34;5.65;;;3.13;;
28343;SDS011;15597;50.914;6.638;2023-06-22T04:52:03;5.75;;;2.97;;
28343;SDS011;15597;50.914;6.638;2023-06-22T04:54:30;5.13;;;2.80;;
28343;SDS011;15597;50.914;6.638;2023-06-22T04:57:02;6.80;;;2.55;;
28343;SDS011;15597;50.914;6.638;2023-06-22T04:59:30;6.13;;;2.90;;
28343;SDS011;15597;50.914;6.638;2023-06-22T05:02:02;5.60;;;3.08;;
28343;SDS011;15597;50.914;6.638;2023-06-22T05:04:29;6.53;;;3.40;;
28343;SDS011;15597;50.914;6.638;2023-06-22T05:06:56;5.43;;;2.60;;
28343;SDS011;15597;50.914;6.638;2023-06-22T05:09:22;6.40;;;3.70;;
28343;SDS011;15597;50.914;6.638;2023-06-22T05:11:48;4.47;;;2.55;;
28343;SDS011;15597;50.914;6.638;2023-06-22T05:14:14;5.97;;;3.20;;
28343;SDS011;15597;50.914;6.638;2023-06-22T05:16:41;5.20;;;2.55;;
28343;SDS011;15597;50.914;6.638;2023-06-22T05:19:08;6.20;;;3.20;;
28343;SDS011;15597;50.914;6.638;2023-06-22T05:21:35;6.68;;;2.70;;
28343;SDS011;15597;50.914;6.638;2023-06-22T05:24:01;5.32;;;2.45;;
28343;SDS011;15597;50.914;6.638;2023-06-22T05:26:32;6.45;;;2.72;;
28343;SDS011;15597;50.914;6.638;2023-06-22T05:28:59;5.05;;;3.10;;
28343;SDS011;15597;50.914;6.638;2023-06-22T05:31:26;7.05;;;3.05;;
28343;SDS011;15597;50.914;6.638;2023-06-22T05:33:52;7.32;;;3.33;;
28343;SDS011;15597;50.914;6.638;2023-06-22T05:36:19;8.63;;;3.50;;
28343;SDS011;15597;50.914;6.638;2023-06-22T05:38:45;5.95;;;2.88;;
28343;SDS011;15597;50.914;6.638;2023-06-22T05:41:11;8.43;;;3.42;;
28343;SDS011;15597;50.914;6.638;2023-06-22T05:43:37;5.35;;;2.85;;
28343;SDS011;15597;50.914;6.638;2023-06-22T05:46:03;4.93;;;2.80;;
28343;SDS011;15597;50.914;6.638;2023-06-22T05:48:29;7.05;;;3.25;;
28343;SDS011;15597;50.914;6.638;2023-06-22T05:50:55;4.70;;;2.78;;
28343;SDS011;15597;50.914;6.638;2023-06-22T05:53:21;7.95;;;2.83;;
28343;SDS011;15597;50.914;6.638;2023-06-22T05:55:46;6.40;;;3.20;;
28343;SDS011;15597;50.914;6.638;2023-06-22T05:58:12;6.07;;;3.20;;
28343;SDS011;15597;50.914;6.638;2023-06-22T06:00:41;6.00;;;2.70;;
28343;SDS011;15597;50.914;6.638;2023-06-22T06:03:08;5.82;;;3.30;;
28343;SDS011;15597;50.914;6.638;2023-06-22T06:05:34;6.40;;;3.05;;
28343;SDS011;15597;50.914;6.638;2023-06-22T06:08:01;6.38;;;3.13;;
28343;SDS011;15597;50.914;6.638;2023-06-22T06:10:30;8.25;;;3.65;;
28343;SDS011;15597;50.914;6.638;2023-06-22T06:12:56;9.55;;;3.95;;
28343;SDS011;15597;50.914;6.638;2023-06-22T06:15:22;5.93;;;2.90;;
28343;SDS011;15597;50.914;6.638;2023-06-22T06:17:48;8.40;;;2.72;;
28343;SDS011;15597;50.914;6.638;2023-06-22T06:20:19;4.78;;;2.58;;
28343;SDS011;15597;50.914;6.638;2023-06-22T06:22:47;9.23;;;3.80;;
28343;SDS011;15597;50.914;6.638;2023-06-22T06:25:13;8.50;;;3.35;;
28343;SDS011;15597;50.914;6.638;2023-06-22T06:27:44;6.95;;;3.17;;
28343;SDS011;15597;50.914;6.638;2023-06-22T06:30:11;5.68;;;2.92;;
28343;SDS011;15597;50.914;6.638;2023-06-22T06:32:38;9.43;;;3.78;;
28343;SDS011;15597;50.914;6.638;2023-06-22T06:35:08;7.80;;;3.42;;
28343;SDS011;15597;50.914;6.638;2023-06-22T06:37:36;6.50;;;3.30;;
28343;SDS011;15597;50.914;6.638;2023-06-22T06:40:05;9.35;;;3.95;;
28343;SDS011;15597;50.914;6.638;2023-06-22T06:42:37;8.13;;;3.60;;
28343;SDS011;15597;50.914;6.638;2023-06-22T06:45:06;8.10;;;3.40;;
28343;SDS011;15597;50.914;6.638;2023-06-22T06:47:32;8.80;;;4.53;;
28343;SDS011;15597;50.914;6.638;2023-06-22T06:49:57;7.70;;;4.25;;
28343;SDS011;15597;50.914;6.638;2023-06-22T06:52:23;9.38;;;3.63;;
28343;SDS011;15597;50.914;6.638;2023-06-22T06:54:48;8.20;;;3.40;;
28343;SDS011;15597;50.914;6.638;2023-06-22T06:57:16;7.63;;;3.50;;
28343;SDS011;15597;50.914;6.638;2023-06-22T06:59:42;13.75;;;4.50;;
28343;SDS011;15597;50.914;6.638;2023-06-22T07:02:08;12.20;;;4.40;;
28343;SDS011;15597;50.914;6.638;2023-06-22T07:04:33;21.23;;;4.95;;
28343;SDS011;15597;50.914;6.638;2023-06-22T07:07:00;11.15;;;4.22;;
28343;SDS011;15597;50.914;6.638;2023-06-22T07:09:27;7.63;;;3.80;;
28343;SDS011;15597;50.914;6.638;2023-06-22T07:11:53;10.95;;;4.10;;
28343;SDS011;15597;50.914;6.638;2023-06-22T07:14:18;10.23;;;4.15;;
28343;SDS011;15597;50.914;6.638;2023-06-22T07:16:44;8.00;;;4.20;;
28343;SDS011;15597;50.914;6.638;2023-06-22T07:19:11;8.95;;;3.92;;
28343;SDS011;15597;50.914;6.638;2023-06-22T07:21:37;10.98;;;3.85;;
28343;SDS011;15597;50.914;6.638;2023-06-22T07:24:04;8.65;;;5.18;;
28343;SDS011;15597;50.914;6.638;2023-06-22T07:26:31;10.85;;;4.03;;
28343;SDS011;15597;50.914;6.638;2023-06-22T07:28:57;9.02;;;3.83;;
28343;SDS011;15597;50.914;6.638;2023-06-22T07:31:26;8.48;;;4.63;;
28343;SDS011;15597;50.914;6.638;2023-06-22T07:33:52;9.65;;;5.95;;
28343;SDS011;15597;50.914;6.638;2023-06-22T07:36:18;12.38;;;4.47;;
28343;SDS011;15597;50.914;6.638;2023-06-22T07:38:43;9.13;;;5.32;;
28343;SDS011;15597;50.914;6.638;2023-06-22T07:41:09;9.82;;;5.10;;
28343;SDS011;15597;50.914;6.638;2023-06-22T07:43:35;8.65;;;5.22;;
28343;SDS011;15597;50.914;6.638;2023-06-22T07:46:05;11.50;;;5.70;;
28343;SDS011;15597;50.914;6.638;2023-06-22T07:48:31;12.75;;;5.07;;
28343;SDS011;15597;50.914;6.638;2023-06-22T07:50:57;8.75;;;6.00;;
28343;SDS011;15597;50.914;6.638;2023-06-22T07:53:22;8.40;;;6.28;;
28343;SDS011;15597;50.914;6.638;2023-06-22T07:55:49;7.95;;;4.47;;
28343;SDS011;15597;50.914;6.638;2023-06-22T07:58:15;10.38;;;5.93;;
28343;SDS011;15597;50.914;6.638;2023-06-22T08:00:41;8.05;;;5.68;;
28343;SDS011;15597;50.914;6.638;2023-06-22T08:03:06;10.90;;;6.05;;
28343;SDS011;15597;50.914;6.638;2023-06-22T08:05:32;11.82;;;6.18;;
28343;SDS011;15597;50.914;6.638;2023-06-22T08:07:58;8.68;;;4.35;;
28343;SDS011;15597;50.914;6.638;2023-06-22T08:10:23;8.93;;;5.05;;
28343;SDS011;15597;50.914;6.638;2023-06-22T08:12:49;7.70;;;5.43;;
28343;SDS011;15597;50.914;6.638;2023-06-22T08:15:14;10.52;;;6.45;;
28343;SDS011;15597;50.914;6.638;2023-06-22T08:17:40;9.13;;;5.40;;
28343;SDS011;15597;50.914;6.638;2023-06-22T08:20:06;9.23;;;6.25;;
28343;SDS011;15597;50.914;6.638;2023-06-22T08:22:37;7.65;;;4.93;;
28343;SDS011;15597;50.914;6.638;2023-06-22T08:25:03;6.97;;;4.88;;
28343;SDS011;15597;50.914;6.638;2023-06-22T08:27:30;10.23;;;5.80;;
28343;SDS011;15597;50.914;6.638;2023-06-22T08:32:27;10.65;;;6.90;;
28343;SDS011;15597;50.914;6.638;2023-06-22T08:34:54;10.02;;;6.45;;
28343;SDS011;15597;50.914;6.638;2023-06-22T08:37:20;7.78;;;5.00;;
28343;SDS011;15597;50.914;6.638;2023-06-22T08:39:49;7.70;;;5.22;;
28343;SDS011;15597;50.914;6.638;2023-06-22T08:42:15;8.38;;;5.82;;
28343;SDS011;15597;50.914;6.638;2023-06-22T08:44:41;9.50;;;5.80;;
28343;SDS011;15597;50.914;6.638;2023-06-22T08:47:07;9.20;;;5.82;;
28343;SDS011;15597;50.914;6.638;2023-06-22T08:49:32;9.77;;;5.80;;
28343;SDS011;15597;50.914;6.638;2023-06-22T08:51:58;11.13;;;6.68;;
28343;SDS011;15597;50.914;6.638;2023-06-22T08:54:23;7.60;;;5.13;;
28343;SDS011;15597;50.914;6.638;2023-06-22T08:56:49;8.13;;;5.60;;
28343;SDS011;15597;50.914;6.638;2023-06-22T08:59:14;10.50;;;6.97;;
28343;SDS011;15597;50.914;6.638;2023-06-22T09:01:40;9.65;;;6.70;;
28343;SDS011;15597;50.914;6.638;2023-06-22T09:04:05;8.13;;;5.28;;
28343;SDS011;15597;50.914;6.638;2023-06-22T09:06:32;11.18;;;6.80;;
28343;SDS011;15597;50.914;6.638;2023-06-22T09:08:58;12.70;;;7.13;;
28343;SDS011;15597;50.914;6.638;2023-06-22T09:11:26;8.85;;;6.18;;
28343;SDS011;15597;50.914;6.638;2023-06-22T09:13:51;9.98;;;6.65;;
28343;SDS011;15597;50.914;6.638;2023-06-22T09:16:18;11.23;;;7.22;;
28343;SDS011;15597;50.914;6.638;2023-06-22T09:18:47;8.77;;;6.60;;
28343;SDS011;15597;50.914;6.638;2023-06-22T09:21:13;10.63;;;5.93;;
28343;SDS011;15597;50.914;6.638;2023-06-22T09:23:39;10.27;;;6.82;;
28343;SDS011;15597;50.914;6.638;2023-06-22T09:26:05;9.70;;;6.55;;
28343;SDS011;15597;50.914;6.638;2023-06-22T09:28:30;8.70;;;6.13;;
28343;SDS011;15597;50.914;6.638;2023-06-22T09:30:56;9.15;;;5.28;;
28343;SDS011;15597;50.914;6.638;2023-06-22T09:33:24;8.95;;;6.30;;
28343;SDS011;15597;50.914;6.638;2023-06-22T09:35:50;12.30;;;6.43;;
28343;SDS011;15597;50.914;6.638;2023-06-22T09:38:16;8.98;;;5.88;;
28343;SDS011;15597;50.914;6.638;2023-06-22T09:40:42;8.25;;;5.80;;
28343;SDS011;15597;50.914;6.638;2023-06-22T09:43:07;9.57;;;5.90;;
28343;SDS011;15597;50.914;6.638;2023-06-22T09:45:33;8.10;;;5.63;;
28343;SDS011;15597;50.914;6.638;2023-06-22T09:47:59;8.68;;;5.70;;
28343;SDS011;15597;50.914;6.638;2023-06-22T09:50:24;8.57;;;5.50;;
28343;SDS011;15597;50.914;6.638;2023-06-22T09:52:50;7.90;;;5.70;;
28343;SDS011;15597;50.914;6.638;2023-06-22T09:55:22;8.70;;;5.45;;
28343;SDS011;15597;50.914;6.638;2023-06-22T09:57:48;7.93;;;5.20;;
28343;SDS011;15597;50.914;6.638;2023-06-22T10:00:15;8.48;;;5.13;;
28343;SDS011;15597;50.914;6.638;2023-06-22T10:02:42;7.78;;;5.38;;
28343;SDS011;15597;50.914;6.638;2023-06-22T10:05:08;6.55;;;4.60;;
28343;SDS011;15597;50.914;6.638;2023-06-22T10:07:34;8.93;;;4.78;;
28343;SDS011;15597;50.914;6.638;2023-06-22T10:09:59;11.20;;;5.05;;
28343;SDS011;15597;50.914;6.638;2023-06-22T10:12:26;15.88;;;5.85;;
28343;SDS011;15597;50.914;6.638;2023-06-22T10:17:18;8.52;;;5.13;;
28343;SDS011;15597;50.914;6.638;2023-06-22T10:19:43;11.00;;;5.53;;
28343;SDS011;15597;50.914;6.638;2023-06-22T10:22:09;12.15;;;6.57;;
28343;SDS011;15597;50.914;6.638;2023-06-22T10:24:34;9.13;;;5.30;;
28343;SDS011;15597;50.914;6.638;2023-06-22T10:27:00;8.43;;;5.00;;
28343;SDS011;15597;50.914;6.638;2023-06-22T10:29:25;9.43;;;5.03;;
28343;SDS011;15597;50.914;6.638;2023-06-22T10:31:51;8.60;;;5.07;;
28343;SDS011;15597;50.914;6.638;2023-06-22T10:34:16;10.27;;;6.10;;
28343;SDS011;15597;50.914;6.638;2023-06-22T10:36:42;9.50;;;5.18;;
28343;SDS011;15597;50.914;6.638;2023-06-22T10:39:07;11.60;;;5.80;;
28343;SDS011;15597;50.914;6.638;2023-06-22T10:41:34;10.52;;;5.78;;
28343;SDS011;15597;50.914;6.638;2023-06-22T10:44:00;12.18;;;5.75;;
28343;SDS011;15597;50.914;6.638;2023-06-22T10:46:26;10.43;;;5.47;;
28343;SDS011;15597;50.914;6.638;2023-06-22T10:48:53;11.60;;;5.65;;
28343;SDS011;15597;50.914;6.638;2023-06-22T10:51:20;9.77;;;5.93;;
28343;SDS011;15597;50.914;6.638;2023-06-22T10:53:46;13.13;;;7.53;;
28343;SDS011;15597;50.914;6.638;2023-06-22T10:56:11;10.57;;;6.35;;
28343;SDS011;15597;50.914;6.638;2023-06-22T10:58:37;10.98;;;6.10;;
28343;SDS011;15597;50.914;6.638;2023-06-22T11:01:03;9.43;;;6.18;;
28343;SDS011;15597;50.914;6.638;2023-06-22T11:03:28;10.55;;;5.88;;
28343;SDS011;15597;50.914;6.638;2023-06-22T11:05:54;10.68;;;6.45;;
28343;SDS011;15597;50.914;6.638;2023-06-22T11:08:19;10.45;;;6.60;;
28343;SDS011;15597;50.914;6.638;2023-06-22T11:10:45;12.13;;;7.03;;
28343;SDS011;15597;50.914;6.638;2023-06-22T11:13:11;11.95;;;5.57;;
28343;SDS011;15597;50.914;6.638;2023-06-22T11:15:36;8.40;;;5.85;;
28343;SDS011;15597;50.914;6.638;2023-06-22T11:18:02;9.18;;;5.72;;
28343;SDS011;15597;50.914;6.638;2023-06-22T11:20:30;8.93;;;5.50;;
28343;SDS011;15597;50.914;6.638;2023-06-22T11:22:56;10.95;;;6.50;;
28343;SDS011;15597;50.914;6.638;2023-06-22T11:25:21;11.15;;;6.32;;
28343;SDS011;15597;50.914;6.638;2023-06-22T11:27:47;11.30;;;6.90;;
28343;SDS011;15597;50.914;6.638;2023-06-22T11:30:12;12.98;;;7.38;;
28343;SDS011;15597;50.914;6.638;2023-06-22T11:32:38;15.10;;;8.05;;
28343;SDS011;15597;50.914;6.638;2023-06-22T11:35:04;13.07;;;7.75;;
28343;SDS011;15597;50.914;6.638;2023-06-22T11:37:29;12.57;;;7.32;;
28343;SDS011;15597;50.914;6.638;2023-06-22T11:39:55;12.90;;;7.55;;
28343;SDS011;15597;50.914;6.638;2023-06-22T11:42:21;12.32;;;6.70;;
28343;SDS011;15597;50.914;6.638;2023-06-22T11:44:49;10.30;;;7.20;;
28343;SDS011;15597;50.914;6.638;2023-06-22T11:47:14;10.05;;;6.50;;
28343;SDS011;15597;50.914;6.638;2023-06-22T11:49:40;11.68;;;6.53;;
28343;SDS011;15597;50.914;6.638;2023-06-22T11:52:06;15.02;;;8.68;;
28343;SDS011;15597;50.914;6.638;2023-06-22T11:54:32;15.60;;;7.70;;
28343;SDS011;15597;50.914;6.638;2023-06-22T11:56:58;11.88;;;8.05;;
28343;SDS011;15597;50.914;6.638;2023-06-22T11:59:24;10.70;;;6.18;;
28343;SDS011;15597;50.914;6.638;2023-06-22T12:01:49;9.07;;;5.93;;
28343;SDS011;15597;50.914;6.638;2023-06-22T12:04:17;10.93;;;6.93;;
28343;SDS011;15597;50.914;6.638;2023-06-22T12:06:43;11.02;;;6.85;;
28343;SDS011;15597;50.914;6.638;2023-06-22T12:09:09;9.27;;;5.95;;
28343;SDS011;15597;50.914;6.638;2023-06-22T12:11:35;10.60;;;6.70;;
28343;SDS011;15597;50.914;6.638;2023-06-22T12:14:00;9.90;;;6.97;;
28343;SDS011;15597;50.914;6.638;2023-06-22T12:16:28;12.38;;;7.10;;
28343;SDS011;15597;50.914;6.638;2023-06-22T12:18:54;10.63;;;7.28;;
28343;SDS011;15597;50.914;6.638;2023-06-22T12:21:19;8.90;;;5.82;;
28343;SDS011;15597;50.914;6.638;2023-06-22T12:23:45;11.68;;;6.57;;
28343;SDS011;15597;50.914;6.638;2023-06-22T12:26:10;9.55;;;6.65;;
28343;SDS011;15597;50.914;6.638;2023-06-22T12:28:36;10.73;;;7.53;;
28343;SDS011;15597;50.914;6.638;2023-06-22T12:31:02;9.73;;;8.02;;
28343;SDS011;15597;50.914;6.638;2023-06-22T12:33:27;11.38;;;7.43;;
28343;SDS011;15597;50.914;6.638;2023-06-22T12:35:52;10.25;;;7.35;;
28343;SDS011;15597;50.914;6.638;2023-06-22T12:38:18;11.48;;;8.30;;
28343;SDS011;15597;50.914;6.638;2023-06-22T12:40:44;11.35;;;8.23;;
28343;SDS011;15597;50.914;6.638;2023-06-22T12:43:09;12.63;;;7.88;;
28343;SDS011;15597;50.914;6.638;2023-06-22T12:45:35;14.00;;;9.45;;
28343;SDS011;15597;50.914;6.638;2023-06-22T12:48:00;12.07;;;7.20;;
28343;SDS011;15597;50.914;6.638;2023-06-22T12:50:26;13.05;;;8.75;;
28343;SDS011;15597;50.914;6.638;2023-06-22T12:52:52;15.20;;;10.27;;
28343;SDS011;15597;50.914;6.638;2023-06-22T12:55:17;11.13;;;7.50;;
28343;SDS011;15597;50.914;6.638;2023-06-22T12:57:43;15.82;;;11.55;;
28343;SDS011;15597;50.914;6.638;2023-06-22T13:00:09;17.67;;;11.77;;
28343;SDS011;15597;50.914;6.638;2023-06-22T13:02:35;14.93;;;10.50;;
28343;SDS011;15597;50.914;6.638;2023-06-22T13:05:02;19.17;;;12.80;;
28343;SDS011;15597;50.914;6.638;2023-06-22T13:07:28;14.93;;;10.30;;
28343;SDS011;15597;50.914;6.638;2023-06-22T13:09:53;16.92;;;11.45;;
28343;SDS011;15597;50.914;6.638;2023-06-22T13:12:22;16.95;;;10.18;;
28343;SDS011;15597;50.914;6.638;2023-06-22T13:14:48;12.73;;;8.40;;
28343;SDS011;15597;50.914;6.638;2023-06-22T13:17:14;11.85;;;9.13;;
28343;SDS011;15597;50.914;6.638;2023-06-22T13:19:40;13.15;;;9.55;;
28343;SDS011;15597;50.914;6.638;2023-06-22T13:22:09;13.43;;;10.02;;
28343;SDS011;15597;50.914;6.638;2023-06-22T13:24:53;13.25;;;8.85;;
28343;SDS011;15597;50.914;6.638;2023-06-22T13:27:18;12.15;;;7.75;;
28343;SDS011;15597;50.914;6.638;2023-06-22T13:29:44;11.27;;;8.13;;
28343;SDS011;15597;50.914;6.638;2023-06-22T13:32:09;10.82;;;7.78;;
28343;SDS011;15597;50.914;6.638;2023-06-22T13:34:35;10.23;;;6.82;;
28343;SDS011;15597;50.914;6.638;2023-06-22T13:37:00;10.60;;;7.10;;
28343;SDS011;15597;50.914;6.638;2023-06-22T13:39:26;9.32;;;6.40;;
28343;SDS011;15597;50.914;6.638;2023-06-22T13:41:51;9.35;;;6.63;;
28343;SDS011;15597;50.914;6.638;2023-06-22T13:44:17;11.25;;;6.13;;
28343;SDS011;15597;50.914;6.638;2023-06-22T13:46:42;10.05;;;5.63;;
28343;SDS011;15597;50.914;6.638;2023-06-22T13:49:08;9.38;;;5.90;;
28343;SDS011;15597;50.914;6.638;2023-06-22T13:51:34;9.52;;;5.75;;
28343;SDS011;15597;50.914;6.638;2023-06-22T13:54:00;9.95;;;5.85;;
28343;SDS011;15597;50.914;6.638;2023-06-22T13:56:25;9.48;;;6.55;;
28343;SDS011;15597;50.914;6.638;2023-06-22T13:58:51;8.00;;;5.75;;
28343;SDS011;15597;50.914;6.638;2023-06-22T14:01:16;10.18;;;6.15;;
28343;SDS011;15597;50.914;6.638;2023-06-22T14:03:42;9.35;;;6.03;;
28343;SDS011;15597;50.914;6.638;2023-06-22T14:06:09;8.80;;;5.93;;
28343;SDS011;15597;50.914;6.638;2023-06-22T14:08:37;14.80;;;6.13;;
28343;SDS011;15597;50.914;6.638;2023-06-22T14:11:03;8.95;;;5.68;;
28343;SDS011;15597;50.914;6.638;2023-06-22T14:13:28;9.50;;;6.68;;
28343;SDS011;15597;50.914;6.638;2023-06-22T14:15:54;9.18;;;6.15;;
28343;SDS011;15597;50.914;6.638;2023-06-22T14:18:19;11.45;;;7.50;;
28343;SDS011;15597;50.914;6.638;2023-06-22T14:20:48;9.65;;;6.65;;
28343;SDS011;15597;50.914;6.638;2023-06-22T14:23:13;10.40;;;7.72;;
28343;SDS011;15597;50.914;6.638;2023-06-22T14:25:39;12.80;;;6.50;;
28343;SDS011;15597;50.914;6.638;2023-06-22T14:28:05;12.35;;;8.50;;
28343;SDS011;15597;50.914;6.638;2023-06-22T14:30:31;13.77;;;10.23;;
28343;SDS011;15597;50.914;6.638;2023-06-22T14:32:56;10.95;;;7.57;;
28343;SDS011;15597;50.914;6.638;2023-06-22T14:35:22;11.60;;;7.75;;
28343;SDS011;15597;50.914;6.638;2023-06-22T14:37:49;13.18;;;8.40;;
28343;SDS011;15597;50.914;6.638;2023-06-22T14:40:15;15.35;;;9.80;;
28343;SDS011;15597;50.914;6.638;2023-06-22T14:42:41;12.75;;;8.70;;
28343;SDS011;15597;50.914;6.638;2023-06-22T14:45:06;15.70;;;10.27;;
28343;SDS011;15597;50.914;6.638;2023-06-22T14:47:32;16.30;;;11.55;;
28343;SDS011;15597;50.914;6.638;2023-06-22T14:49:58;16.17;;;11.45;;
28343;SDS011;15597;50.914;6.638;2023-06-22T14:52:25;15.48;;;11.73;;
28343;SDS011;15597;50.914;6.638;2023-06-22T14:54:52;14.95;;;10.35;;